Time;durP1;ratioP1;P1;durP2;ratioP2;P2;SDS_P1;SDS_P2;PMS_P1;PMS_P2;Temp;Humidity;BMP_temperature;BMP_pressure;BME280_temperature;BME280_humidity;BME280_pressure;Samples;Min_cycle;Max_cycle;Signal;HPM_P1;HPM_P2
2022/08/10 00:00:20;;;;;;;7.88;3.85;;;22.00;57.90;;;;;;5040296;28;20025;-57
2022/08/10 00:02:55;;;;;;;9.38;3.95;;;22.00;58.40;;;;;;5040578;28;20030;-57
2022/08/10 00:05:21;;;;;;;10.20;4.03;;;22.00;58.00;;;;;;5040190;28;20108;-60
2022/08/10 00:07:48;;;;;;;9.57;3.90;;;22.00;56.60;;;;;;5039421;28;20050;-57
2022/08/10 00:10:15;;;;;;;8.48;3.85;;;22.00;57.20;;;;;;5039977;28;20026;-56
2022/08/10 00:12:42;;;;;;;9.40;4.03;;;22.00;55.60;;;;;;5040249;28;20049;-56
2022/08/10 00:15:11;;;;;;;7.22;4.03;;;21.90;58.20;;;;;;5039871;28;20043;-60
2022/08/10 00:17:37;;;;;;;7.60;3.65;;;21.90;59.60;;;;;;5040179;28;20497;-56
2022/08/10 00:20:04;;;;;;;6.63;3.70;;;21.90;56.10;;;;;;5040081;28;20025;-52
2022/08/10 00:22:29;;;;;;;7.03;4.03;;;21.90;57.40;;;;;;5039729;28;20075;-57
2022/08/10 00:24:56;;;;;;;6.60;3.50;;;21.80;57.50;;;;;;5039683;28;20469;-60
2022/08/10 00:27:26;;;;;;;6.85;3.70;;;21.80;55.50;;;;;;5039371;28;20047;-57
2022/08/10 00:29:52;;;;;;;5.80;3.55;;;21.80;57.00;;;;;;5039584;28;20067;-57
2022/08/10 00:32:18;;;;;;;8.07;4.00;;;21.80;56.80;;;;;;5039605;28;20030;-58
2022/08/10 00:34:45;;;;;;;8.77;3.80;;;21.80;57.70;;;;;;5039578;28;20028;-55
2022/08/10 00:37:12;;;;;;;7.53;3.72;;;21.80;58.70;;;;;;5038259;28;20032;-66
2022/08/10 00:39:38;;;;;;;7.07;4.28;;;21.80;58.60;;;;;;5039177;28;20026;-53
2022/08/10 00:42:06;;;;;;;6.88;3.58;;;21.70;58.20;;;;;;5038272;28;20030;-56
2022/08/10 00:44:32;;;;;;;8.75;3.70;;;21.70;58.80;;;;;;5039189;28;20531;-56
2022/08/10 00:46:59;;;;;;;8.75;3.65;;;21.70;58.80;;;;;;5038907;28;20056;-55
2022/08/10 00:49:27;;;;;;;6.40;3.78;;;21.70;58.70;;;;;;5039057;28;20048;-55
2022/08/10 00:51:53;;;;;;;8.02;4.07;;;21.60;58.70;;;;;;5038520;28;20017;-56
2022/08/10 00:54:19;;;;;;;7.32;3.70;;;21.60;59.10;;;;;;5039024;28;20029;-65
2022/08/10 00:56:45;;;;;;;7.82;3.28;;;21.60;60.10;;;;;;5038717;28;20045;-56
2022/08/10 00:59:11;;;;;;;5.28;3.30;;;21.60;58.60;;;;;;5039069;28;20056;-56
2022/08/10 01:01:37;;;;;;;8.07;4.13;;;21.60;60.10;;;;;;5038722;28;20022;-56
2022/08/10 01:04:03;;;;;;;8.43;3.80;;;21.60;60.00;;;;;;5038654;28;20027;-53
2022/08/10 01:06:33;;;;;;;6.57;3.78;;;21.50;58.60;;;;;;5038017;28;20029;-57
2022/08/10 01:09:17;;;;;;;8.95;4.32;;;21.60;58.90;;;;;;5038518;28;20026;-54
2022/08/10 01:11:49;;;;;;;6.93;3.67;;;21.50;60.60;;;;;;5038521;28;20083;-53
2022/08/10 01:14:36;;;;;;;7.78;3.92;;;21.50;59.70;;;;;;5038492;28;20420;-56
2022/08/10 01:17:10;;;;;;;7.85;3.72;;;21.50;57.10;;;;;;5038293;28;20072;-55
2022/08/10 01:19:50;;;;;;;8.43;3.75;;;21.50;57.40;;;;;;5038193;28;20492;-56
2022/08/10 01:22:34;;;;;;;9.27;3.75;;;21.50;58.50;;;;;;5037893;28;20038;-55
2022/08/10 01:25:06;;;;;;;7.30;3.47;;;21.50;59.40;;;;;;5037953;28;20026;-56
2022/08/10 01:27:54;;;;;;;9.20;4.03;;;21.50;59.80;;;;;;5038310;28;20029;-59
2022/08/10 01:30:25;;;;;;;8.50;3.53;;;21.40;60.00;;;;;;5038270;28;20018;-55
2022/08/10 01:33:30;;;;;;;7.25;3.88;;;21.40;60.50;;;;;;5038356;28;20028;-53
2022/08/10 01:36:15;;;;;;;7.55;3.47;;;21.40;61.20;;;;;;5037758;28;20091;-58
2022/08/10 01:38:51;;;;;;;7.55;3.85;;;21.40;60.50;;;;;;5038006;28;20055;-56
2022/08/10 01:41:45;;;;;;;5.82;3.65;;;21.30;60.00;;;;;;5037552;28;20036;-56
2022/08/10 01:44:24;;;;;;;8.07;3.70;;;21.40;58.30;;;;;;5038392;28;20160;-56
2022/08/10 01:46:54;;;;;;;9.43;3.90;;;21.40;60.70;;;;;;5038077;28;20040;-51
2022/08/10 01:49:22;;;;;;;7.70;3.85;;;21.30;61.70;;;;;;5038011;28;20056;-52
2022/08/10 01:51:57;;;;;;;5.95;3.47;;;21.30;60.70;;;;;;5037991;28;20049;-56
2022/08/10 01:54:25;;;;;;;8.73;3.75;;;21.30;61.20;;;;;;5036682;28;20030;-56
2022/08/10 01:56:57;;;;;;;6.75;3.92;;;21.30;60.60;;;;;;5037515;28;20026;-56
2022/08/10 01:59:30;;;;;;;9.10;3.97;;;21.30;60.10;;;;;;5037740;28;20048;-57
2022/08/10 02:02:01;;;;;;;7.82;3.97;;;21.30;60.90;;;;;;5037728;28;20018;-56
2022/08/10 02:04:30;;;;;;;7.57;4.03;;;21.30;60.80;;;;;;5037644;28;20397;-56
2022/08/10 02:06:56;;;;;;;6.47;3.80;;;21.30;61.80;;;;;;5037528;28;20072;-57
2022/08/10 02:09:35;;;;;;;8.20;4.35;;;21.30;60.70;;;;;;5019343;28;20124;-50
2022/08/10 02:12:07;;;;;;;9.00;4.10;;;21.20;61.50;;;;;;5033231;28;20021;-54
2022/08/10 02:14:42;;;;;;;10.45;4.30;;;21.20;61.30;;;;;;5036922;28;20140;-58
2022/08/10 02:17:13;;;;;;;9.82;4.35;;;21.20;61.20;;;;;;5030180;28;20461;-55
2022/08/10 02:19:40;;;;;;;11.23;4.07;;;21.20;61.30;;;;;;5037657;28;20029;-57
2022/08/10 02:22:08;;;;;;;9.32;4.38;;;21.20;62.10;;;;;;5037775;28;20022;-51
2022/08/10 02:24:36;;;;;;;8.85;4.07;;;21.10;61.30;;;;;;5037455;28;20504;-58
2022/08/10 02:27:04;;;;;;;6.32;4.03;;;21.20;60.60;;;;;;5037273;28;20021;-58
2022/08/10 02:29:31;;;;;;;8.27;3.65;;;21.20;61.90;;;;;;5037514;28;20030;-57
2022/08/10 02:31:57;;;;;;;7.72;3.90;;;21.10;61.90;;;;;;5037549;28;20025;-55
2022/08/10 02:34:24;;;;;;;8.65;3.90;;;21.10;61.00;;;;;;5037760;28;20026;-58
2022/08/10 02:36:52;;;;;;;10.70;4.28;;;21.10;61.50;;;;;;5037573;28;20014;-58
2022/08/10 02:39:19;;;;;;;8.30;3.90;;;21.00;62.70;;;;;;5037528;28;20034;-58
2022/08/10 02:42:09;;;;;;;9.30;4.10;;;21.10;62.40;;;;;;5036917;28;20025;-58
2022/08/10 02:44:41;;;;;;;9.50;4.43;;;21.00;62.80;;;;;;5037231;28;20056;-56
2022/08/10 02:47:11;;;;;;;7.57;4.00;;;21.10;62.50;;;;;;5037425;28;20022;-55
2022/08/10 02:49:52;;;;;;;7.43;4.15;;;21.00;62.60;;;;;;5037490;28;20026;-56
2022/08/10 02:52:26;;;;;;;9.32;4.57;;;21.00;62.60;;;;;;5037457;28;20381;-58
2022/08/10 02:54:54;;;;;;;;;;;21.00;62.50;;;;;;5037971;28;20542;-57
2022/08/10 02:57:26;;;;;;;8.23;4.03;;;21.00;61.10;;;;;;5037120;28;19916;-56
2022/08/10 02:59:56;;;;;;;9.98;4.65;;;20.90;62.60;;;;;;5037356;28;20032;-55
2022/08/10 03:02:45;;;;;;;7.72;4.30;;;20.90;63.10;;;;;;5037348;28;20029;-56
2022/08/10 03:05:16;;;;;;;11.18;4.55;;;20.90;62.40;;;;;;5037341;28;20048;-57
2022/08/10 03:07:58;;;;;;;12.55;4.50;;;20.90;63.50;;;;;;5040783;28;20060;-55
2022/08/10 03:10:27;;;;;;;10.48;4.18;;;20.90;63.20;;;;;;5041496;28;20536;-56
2022/08/10 03:12:57;;;;;;;8.73;3.60;;;20.90;62.00;;;;;;5040999;28;20445;-54
2022/08/10 03:15:26;;;;;;;10.13;4.05;;;20.80;63.30;;;;;;5023086;28;20113;-56
2022/08/10 03:17:52;;;;;;;8.70;4.03;;;20.80;62.70;;;;;;5023227;28;20060;-57
2022/08/10 03:20:20;;;;;;;12.13;5.07;;;20.90;63.50;;;;;;5041079;28;20030;-54
2022/08/10 03:22:50;;;;;;;8.10;4.38;;;20.80;63.00;;;;;;5040838;28;20022;-59
2022/08/10 03:25:19;;;;;;;8.45;4.38;;;20.80;63.40;;;;;;5040833;28;20026;-56
2022/08/10 03:27:47;;;;;;;8.05;4.22;;;20.80;64.70;;;;;;5040413;28;20034;-56
2022/08/10 03:30:13;;;;;;;9.60;4.53;;;20.80;64.10;;;;;;5040967;28;20036;-56
2022/08/10 03:32:41;;;;;;;9.23;4.47;;;20.80;64.30;;;;;;5040667;28;20022;-59
2022/08/10 03:35:07;;;;;;;6.97;3.90;;;20.70;63.80;;;;;;5022717;28;20021;-57
2022/08/10 03:37:33;;;;;;;8.57;4.70;;;20.70;63.10;;;;;;5040556;28;20029;-55
2022/08/10 03:39:59;;;;;;;9.02;4.72;;;20.70;63.30;;;;;;5040845;28;20448;-54
2022/08/10 03:42:27;;;;;;;9.93;4.40;;;20.70;62.70;;;;;;5040049;28;20064;-58
2022/08/10 03:44:55;;;;;;;8.38;3.97;;;20.70;64.60;;;;;;5040823;28;20029;-57
2022/08/10 03:47:23;;;;;;;9.15;4.55;;;20.70;63.30;;;;;;5040296;28;20021;-54
2022/08/10 03:49:50;;;;;;;8.50;4.30;;;20.60;64.10;;;;;;5040303;28;20026;-57
2022/08/10 03:52:17;;;;;;;9.50;4.25;;;20.60;63.50;;;;;;5040326;28;20022;-57
2022/08/10 03:54:44;;;;;;;9.38;4.43;;;20.60;64.30;;;;;;5040321;28;20033;-58
2022/08/10 03:57:10;;;;;;;8.55;4.13;;;20.60;64.80;;;;;;5039740;28;20021;-57
2022/08/10 03:59:37;;;;;;;10.00;4.40;;;20.60;64.20;;;;;;5040409;28;20026;-57
2022/08/10 04:02:07;;;;;;;11.38;4.00;;;20.60;64.80;;;;;;5040112;28;20053;-63
2022/08/10 04:04:33;;;;;;;10.55;4.55;;;20.60;64.60;;;;;;5022219;28;20029;-55
2022/08/10 04:07:00;;;;;;;6.30;4.00;;;20.60;64.20;;;;;;5040071;28;20068;-58
2022/08/10 04:09:31;;;;;;;6.65;4.30;;;20.60;64.30;;;;;;5022135;28;20029;-53
2022/08/10 04:11:57;;;;;;;10.43;4.30;;;20.50;64.50;;;;;;5039769;28;20075;-56
2022/08/10 04:14:22;;;;;;;10.63;4.55;;;20.50;64.50;;;;;;5040079;28;20112;-58
2022/08/10 04:16:48;;;;;;;8.73;4.40;;;20.50;64.10;;;;;;5039351;28;20358;-66
2022/08/10 04:19:18;;;;;;;9.80;4.60;;;20.50;64.40;;;;;;5039728;28;20036;-55
2022/08/10 04:21:55;;;;;;;9.82;4.50;;;20.40;65.20;;;;;;5040197;28;20052;-56
2022/08/10 04:24:25;;;;;;;9.10;4.82;;;20.40;64.40;;;;;;5038726;28;20037;-55
2022/08/10 04:26:51;;;;;;;10.05;4.70;;;20.40;64.10;;;;;;5039521;28;20108;-55
2022/08/10 04:29:17;;;;;;;9.82;4.75;;;20.40;64.70;;;;;;5039515;28;20065;-55
2022/08/10 04:31:43;;;;;;;10.18;5.05;;;20.40;64.20;;;;;;5039375;28;20017;-56
2022/08/10 04:34:10;;;;;;;9.38;4.30;;;20.40;63.90;;;;;;5039781;28;20055;-56
2022/08/10 04:36:38;;;;;;;10.50;4.70;;;20.40;64.70;;;;;;5039700;28;20020;-50
2022/08/10 04:39:04;;;;;;;8.35;4.55;;;20.30;65.00;;;;;;5039490;28;20045;-55
2022/08/10 04:41:30;;;;;;;7.65;4.63;;;20.30;64.40;;;;;;5039393;28;20030;-54
2022/08/10 04:43:56;;;;;;;9.35;4.53;;;20.30;65.10;;;;;;5039661;28;20109;-53
2022/08/10 04:46:22;;;;;;;9.88;4.30;;;20.30;65.10;;;;;;5038308;28;20028;-56
2022/08/10 04:48:48;;;;;;;11.52;4.40;;;20.30;65.10;;;;;;5039694;28;20112;-56
2022/08/10 04:51:17;;;;;;;12.02;4.68;;;20.30;65.60;;;;;;5039448;28;20416;-56
2022/08/10 04:53:43;;;;;;;10.50;4.68;;;20.30;65.90;;;;;;5039308;28;20040;-57
2022/08/10 04:56:09;;;;;;;11.15;4.90;;;20.30;65.60;;;;;;5039320;28;20089;-55
2022/08/10 04:58:35;;;;;;;9.63;4.60;;;20.30;65.30;;;;;;5039487;28;20061;-56
2022/08/10 05:01:01;;;;;;;9.07;4.63;;;20.30;65.30;;;;;;5039013;28;20030;-56
2022/08/10 05:03:27;;;;;;;10.10;5.03;;;20.20;65.00;;;;;;5038890;28;20033;-55
2022/08/10 05:05:53;;;;;;;9.20;4.82;;;20.30;66.00;;;;;;5039286;28;20105;-57
2022/08/10 05:08:18;;;;;;;10.35;4.07;;;20.20;65.20;;;;;;5038640;28;20488;-56
2022/08/10 05:10:44;;;;;;;9.20;4.93;;;20.20;65.90;;;;;;5039222;28;20021;-55
2022/08/10 05:13:10;;;;;;;11.70;5.35;;;20.20;65.20;;;;;;5038980;28;20075;-56
2022/08/10 05:15:37;;;;;;;10.30;4.50;;;20.20;66.40;;;;;;5038642;28;20132;-56
2022/08/10 05:18:03;;;;;;;10.70;4.35;;;20.20;66.20;;;;;;5038590;28;20092;-55
2022/08/10 05:20:28;;;;;;;9.15;4.50;;;20.20;64.80;;;;;;5039057;28;20017;-55
2022/08/10 05:22:54;;;;;;;15.38;4.65;;;20.20;65.90;;;;;;5038782;28;20043;-57
2022/08/10 05:25:20;;;;;;;11.40;4.57;;;20.20;65.10;;;;;;5038547;28;20100;-54
2022/08/10 05:27:47;;;;;;;10.68;4.65;;;20.20;65.10;;;;;;5038893;28;20021;-57
2022/08/10 05:30:18;;;;;;;9.90;4.55;;;20.10;66.60;;;;;;5037293;28;20030;-57
2022/08/10 05:32:44;;;;;;;10.88;4.65;;;20.10;66.00;;;;;;5038181;28;20013;-57
2022/08/10 05:35:10;;;;;;;9.05;4.28;;;20.10;67.30;;;;;;5038127;28;20084;-53
2022/08/10 05:37:36;;;;;;;15.52;5.15;;;20.10;67.00;;;;;;5038417;28;20022;-55
2022/08/10 05:40:04;;;;;;;9.05;6.18;;;20.10;65.90;;;;;;5037839;28;20079;-62
2022/08/10 05:42:30;;;;;;;17.50;11.75;;;20.20;65.30;;;;;;5038003;28;20032;-56
2022/08/10 05:44:56;;;;;;;16.13;9.68;;;20.20;67.80;;;;;;5038220;28;20025;-60
2022/08/10 05:47:22;;;;;;;18.77;16.38;;;20.20;67.40;;;;;;5038239;28;20029;-56
2022/08/10 05:49:49;;;;;;;22.20;19.17;;;20.20;67.80;;;;;;5038001;28;20022;-60
2022/08/10 05:52:16;;;;;;;15.10;7.35;;;20.20;67.00;;;;;;5037591;28;20060;-50
2022/08/10 05:54:42;;;;;;;16.52;11.82;;;20.30;66.50;;;;;;5020397;28;20471;-63
2022/08/10 05:57:10;;;;;;;13.43;10.70;;;20.30;66.60;;;;;;5037181;28;20021;-56
2022/08/10 05:59:43;;;;;;;12.70;7.55;;;20.30;66.90;;;;;;5037164;28;20025;-56
2022/08/10 06:02:12;;;;;;;9.43;5.55;;;20.30;65.50;;;;;;5037599;28;20029;-52
2022/08/10 06:04:43;;;;;;;10.27;5.57;;;20.40;65.60;;;;;;5037810;28;20025;-57
2022/08/10 06:07:12;;;;;;;13.07;5.30;;;20.40;66.80;;;;;;5036844;28;20068;-54
2022/08/10 06:09:41;;;;;;;10.40;5.40;;;20.40;66.10;;;;;;5037212;28;20455;-56
2022/08/10 06:12:07;;;;;;;12.90;5.60;;;20.40;66.70;;;;;;5037400;28;20060;-57
2022/08/10 06:17:18;;;;;;;10.63;5.43;;;20.40;67.20;;;;;;5037350;28;20105;-55
2022/08/10 06:19:44;;;;;;;10.30;5.13;;;20.40;65.90;;;;;;5037450;28;20029;-58
2022/08/10 06:22:11;;;;;;;11.90;5.03;;;20.50;66.90;;;;;;5037448;28;20049;-56
2022/08/10 06:24:40;;;;;;;8.30;4.82;;;20.50;65.80;;;;;;5037191;28;20055;-56
2022/08/10 06:27:06;;;;;;;11.43;5.00;;;20.50;67.60;;;;;;5037189;28;20024;-56
2022/08/10 06:29:35;;;;;;;10.32;5.10;;;20.50;65.90;;;;;;5037446;28;20063;-56
2022/08/10 06:32:03;;;;;;;9.52;5.43;;;20.50;65.70;;;;;;5037151;28;20024;-56
2022/08/10 06:34:34;;;;;;;9.85;5.20;;;20.50;65.90;;;;;;5037179;28;20025;-54
2022/08/10 06:37:04;;;;;;;11.02;5.55;;;20.60;65.70;;;;;;5037459;28;20024;-56
2022/08/10 06:39:30;;;;;;;10.82;4.85;;;20.60;66.60;;;;;;5037096;28;20026;-55
2022/08/10 06:42:04;;;;;;;13.30;5.90;;;20.70;66.30;;;;;;5040211;28;20577;-56
2022/08/10 06:44:39;;;;;;;9.95;4.97;;;20.70;65.60;;;;;;5040388;28;20029;-57
2022/08/10 06:47:08;;;;;;;;;;;20.70;66.60;;;;;;5041617;28;20026;-51
2022/08/10 06:49:36;;;;;;;9.75;5.43;;;20.80;66.10;;;;;;5041265;28;19912;-51
2022/08/10 06:52:02;;;;;;;10.18;4.97;;;20.80;66.20;;;;;;5040865;28;20087;-55
2022/08/10 06:54:31;;;;;;;9.40;5.00;;;20.90;66.00;;;;;;5040557;28;20021;-48
2022/08/10 06:56:57;;;;;;;10.80;5.43;;;21.00;66.60;;;;;;5040243;28;20055;-48
2022/08/10 06:59:43;;;;;;;12.38;5.65;;;21.00;65.40;;;;;;5039843;28;20025;-47
2022/08/10 07:02:28;;;;;;;9.65;5.75;;;21.10;65.60;;;;;;5021360;28;20029;-47
2022/08/10 07:05:01;;;;;;;10.60;5.22;;;21.20;65.60;;;;;;5029760;28;20546;-49
2022/08/10 07:07:31;;;;;;;12.43;5.65;;;21.30;65.50;;;;;;5039908;28;20488;-47
2022/08/10 07:09:58;;;;;;;11.80;5.45;;;21.30;65.40;;;;;;5040840;28;20358;-46
2022/08/10 07:12:26;;;;;;;9.23;4.97;;;21.40;65.60;;;;;;5040605;28;20029;-46
2022/08/10 07:14:53;;;;;;;7.65;4.78;;;21.50;65.30;;;;;;5040563;28;20013;-47
2022/08/10 07:17:21;;;;;;;10.57;5.22;;;21.50;65.30;;;;;;5040528;28;20527;-50
2022/08/10 07:19:59;;;;;;;9.48;4.90;;;21.60;65.10;;;;;;5040521;28;20048;-47
2022/08/10 07:22:29;;;;;;;8.25;4.60;;;21.70;64.90;;;;;;5020542;28;20092;-51
2022/08/10 07:24:56;;;;;;;10.13;5.22;;;21.80;64.80;;;;;;5020474;28;20068;-49
2022/08/10 07:27:25;;;;;;;11.82;4.53;;;21.80;64.70;;;;;;5020499;28;20052;-49
2022/08/10 07:29:52;;;;;;;9.32;4.43;;;21.90;64.50;;;;;;5020264;28;20114;-52
2022/08/10 07:32:20;;;;;;;8.77;4.78;;;22.00;64.60;;;;;;5020580;28;20057;-54
2022/08/10 07:34:48;;;;;;;7.57;4.78;;;22.00;64.70;;;;;;5021276;28;20022;-52
2022/08/10 07:37:15;;;;;;;7.88;4.82;;;22.10;64.50;;;;;;5040172;28;20013;-53
2022/08/10 07:39:46;;;;;;;10.98;5.15;;;22.20;64.60;;;;;;5040080;28;20025;-53
2022/08/10 07:42:13;;;;;;;11.10;5.07;;;22.20;64.00;;;;;;5040255;28;20473;-47
2022/08/10 07:44:42;;;;;;;11.35;4.82;;;22.30;63.90;;;;;;5040161;28;20112;-50
2022/08/10 07:47:13;;;;;;;10.70;4.90;;;22.40;63.90;;;;;;5039900;28;20373;-48
2022/08/10 07:49:42;;;;;;;9.90;5.22;;;22.40;64.00;;;;;;5040271;28;20022;-47
2022/08/10 07:52:09;;;;;;;9.25;4.97;;;22.50;63.80;;;;;;5039139;28;20029;-48
2022/08/10 07:54:48;;;;;;;9.77;4.90;;;22.60;63.80;;;;;;5040026;28;20075;-56
2022/08/10 07:57:24;;;;;;;11.50;5.05;;;22.70;64.00;;;;;;5039966;28;20028;-56
2022/08/10 08:00:01;;;;;;;11.10;5.40;;;22.70;63.40;;;;;;5039451;28;20038;-56
2022/08/10 08:02:30;;;;;;;9.77;5.40;;;22.80;63.40;;;;;;5040257;28;20504;-53
2022/08/10 08:04:59;;;;;;;7.82;4.78;;;22.90;63.30;;;;;;5022043;28;20140;-55
2022/08/10 08:07:28;;;;;;;7.47;4.82;;;22.90;62.90;;;;;;5039597;28;20096;-52
2022/08/10 08:09:55;;;;;;;11.00;5.22;;;23.00;62.50;;;;;;5040068;28;20029;-53
2022/08/10 08:12:23;;;;;;;9.85;4.80;;;23.10;62.70;;;;;;5039344;28;20028;-56
2022/08/10 08:14:49;;;;;;;8.23;4.60;;;23.10;62.80;;;;;;5039015;28;20480;-54
2022/08/10 08:17:17;;;;;;;9.90;4.93;;;23.20;63.10;;;;;;5039658;28;20017;-55
2022/08/10 08:19:48;;;;;;;8.25;4.50;;;23.30;62.80;;;;;;5039051;28;20040;-64
2022/08/10 08:22:16;;;;;;;7.05;4.90;;;23.40;62.80;;;;;;5021031;28;20038;-57
2022/08/10 08:24:43;;;;;;;10.38;5.10;;;23.50;62.70;;;;;;5039434;28;20065;-57
2022/08/10 08:27:14;;;;;;;9.73;5.10;;;23.60;62.40;;;;;;5039149;28;20048;-60
2022/08/10 08:29:43;;;;;;;10.07;5.10;;;23.60;61.90;;;;;;5039014;28;20481;-55
2022/08/10 08:32:10;;;;;;;10.60;4.90;;;23.70;62.40;;;;;;5039519;28;20018;-65
2022/08/10 08:34:41;;;;;;;9.40;4.88;;;23.80;62.20;;;;;;5039179;28;20018;-56
2022/08/10 08:37:09;;;;;;;9.88;5.47;;;23.90;62.30;;;;;;5039195;28;20021;-56
2022/08/10 08:39:35;;;;;;;10.00;4.82;;;23.90;61.80;;;;;;5039171;28;20442;-68
2022/08/10 08:42:38;;;;;;;8.38;5.07;;;24.00;61.90;;;;;;5037950;28;20522;-55
2022/08/10 08:45:21;;;;;;;11.98;5.75;;;24.10;61.60;;;;;;5037793;28;20029;-53
2022/08/10 08:48:11;;;;;;;7.82;4.75;;;24.20;61.80;;;;;;5037745;28;20029;-56
2022/08/10 08:51:02;;;;;;;9.57;4.97;;;24.20;60.90;;;;;;5038659;28;20028;-68
2022/08/10 08:53:37;;;;;;;8.60;5.13;;;24.40;60.30;;;;;;5037694;28;20025;-55
2022/08/10 08:56:13;;;;;;;9.48;5.07;;;24.40;59.90;;;;;;5036814;28;20112;-54
2022/08/10 08:59:00;;;;;;;7.35;4.63;;;24.40;60.60;;;;;;5037292;28;20104;-56
2022/08/10 09:01:31;;;;;;;9.93;5.00;;;24.60;60.40;;;;;;5036956;28;20074;-57
2022/08/10 09:04:36;;;;;;;8.57;5.10;;;24.70;58.90;;;;;;5036673;28;20029;-54
2022/08/10 09:07:20;;;;;;;9.85;5.20;;;24.80;59.90;;;;;;5021490;28;20057;-56
2022/08/10 09:09:55;;;;;;;;;;;24.90;58.90;;;;;;5038540;28;20022;-57
2022/08/10 09:12:39;;;;;;;7.95;5.25;;;25.00;59.20;;;;;;5036436;28;19934;-56
2022/08/10 09:15:20;;;;;;;7.60;5.47;;;25.20;55.20;;;;;;5037257;28;20116;-56
2022/08/10 09:17:54;;;;;;;10.75;5.63;;;25.30;55.30;;;;;;5001675;28;20059;-57
2022/08/10 09:20:38;;;;;;;9.82;5.05;;;25.40;55.50;;;;;;5019928;28;20033;-57
2022/08/10 09:23:41;;;;;;;7.80;4.80;;;25.50;57.10;;;;;;5036080;28;20029;-57
2022/08/10 09:26:20;;;;;;;8.18;4.93;;;25.80;57.10;;;;;;5034173;28;20025;-56
2022/08/10 09:28:48;;;;;;;9.18;5.15;;;26.00;55.50;;;;;;5017520;28;20036;-56
2022/08/10 09:31:19;;;;;;;9.95;5.60;;;26.30;53.60;;;;;;5035751;28;20027;-58
2022/08/10 09:33:51;;;;;;;8.93;5.00;;;26.50;54.20;;;;;;5036089;28;20041;-56
2022/08/10 09:36:16;;;;;;;7.10;5.10;;;26.80;51.90;;;;;;5035758;28;20018;-58
2022/08/10 09:39:08;;;;;;;10.27;4.97;;;27.00;49.80;;;;;;5035557;28;20120;-57
2022/08/10 09:42:10;;;;;;;7.80;4.75;;;27.40;53.30;;;;;;5035186;28;20029;-56
2022/08/10 09:45:01;;;;;;;6.18;4.63;;;27.90;51.40;;;;;;5035341;28;20032;-57
2022/08/10 09:47:44;;;;;;;9.45;5.50;;;28.30;50.30;;;;;;5035008;28;20075;-56
2022/08/10 09:50:23;;;;;;;9.57;4.88;;;28.70;47.50;;;;;;5035361;28;20030;-54
2022/08/10 09:52:52;;;;;;;9.10;4.72;;;29.00;46.60;;;;;;5035156;28;20505;-57
2022/08/10 09:55:38;;;;;;;7.90;5.03;;;29.30;45.70;;;;;;5036540;28;20120;-52
2022/08/10 09:58:10;;;;;;;9.10;4.85;;;29.60;47.10;;;;;;5037375;28;20029;-56
2022/08/10 10:00:51;;;;;;;6.32;5.00;;;30.00;44.50;;;;;;5035293;28;20029;-57
2022/08/10 10:03:23;;;;;;;7.90;4.95;;;30.40;46.50;;;;;;5036359;28;20029;-58
2022/08/10 10:06:13;;;;;;;9.48;4.90;;;30.80;43.30;;;;;;5036932;28;20034;-58
2022/08/10 10:09:08;;;;;;;7.15;4.53;;;31.20;45.60;;;;;;5036717;28;20051;-57
2022/08/10 10:11:51;;;;;;;8.30;4.32;;;31.70;46.70;;;;;;5037120;28;20033;-58
2022/08/10 10:15:19;;;;;;;7.88;4.82;;;32.30;45.10;;;;;;5018373;28;20532;-59
2022/08/10 10:17:48;;;;;;;6.55;4.60;;;32.70;42.70;;;;;;5007110;28;20048;-57
2022/08/10 10:20:31;;;;;;;7.82;4.55;;;33.00;42.70;;;;;;5036224;28;20051;-58
2022/08/10 10:23:23;;;;;;;8.40;4.18;;;33.30;42.30;;;;;;5036570;28;20025;-57
2022/08/10 10:26:25;;;;;;;8.68;4.85;;;33.50;43.30;;;;;;5036475;28;20029;-59
2022/08/10 10:29:21;;;;;;;7.72;4.38;;;33.90;39.80;;;;;;5037092;28;20032;-59
2022/08/10 10:31:50;;;;;;;7.03;4.80;;;34.20;38.00;;;;;;5037518;28;20049;-56
2022/08/10 10:34:44;;;;;;;6.40;4.57;;;34.50;39.50;;;;;;5036964;28;20393;-56
2022/08/10 10:37:11;;;;;;;6.50;4.22;;;34.80;40.90;;;;;;5037352;28;20113;-59
2022/08/10 10:39:41;;;;;;;6.65;4.15;;;35.10;39.50;;;;;;5037008;28;20040;-59
2022/08/10 10:42:45;;;;;;;5.93;4.50;;;35.20;38.00;;;;;;5037476;28;20416;-56
2022/08/10 10:45:25;;;;;;;9.02;4.20;;;35.40;38.80;;;;;;5036108;28;20144;-58
2022/08/10 10:47:51;;;;;;;6.88;4.13;;;35.70;41.10;;;;;;5037203;28;20025;-55
2022/08/10 10:50:33;;;;;;;7.60;4.18;;;36.10;39.80;;;;;;5037140;28;20032;-56
2022/08/10 10:53:14;;;;;;;8.00;4.57;;;36.40;37.90;;;;;;5037222;28;20054;-56
2022/08/10 10:55:49;;;;;;;9.05;4.60;;;36.70;38.80;;;;;;5037021;28;20021;-58
2022/08/10 10:58:23;;;;;;;8.50;4.40;;;36.80;34.50;;;;;;5036825;28;20025;-57
2022/08/10 11:01:20;;;;;;;8.43;4.75;;;37.00;36.30;;;;;;5037257;28;20025;-58
2022/08/10 11:04:01;;;;;;;7.10;4.38;;;37.30;38.00;;;;;;5036637;28;20025;-58
2022/08/10 11:06:44;;;;;;;8.95;4.63;;;37.50;35.10;;;;;;5037078;28;20443;-61
2022/08/10 11:09:17;;;;;;;8.43;4.35;;;37.50;36.80;;;;;;5037180;28;20125;-56
2022/08/10 11:11:47;;;;;;;6.93;4.57;;;37.70;32.40;;;;;;5036869;28;20496;-56
2022/08/10 11:14:45;;;;;;;5.13;4.07;;;37.90;33.10;;;;;;5036893;28;20053;-58
2022/08/10 11:17:18;;;;;;;6.38;4.30;;;38.00;35.70;;;;;;5036808;28;20017;-57
2022/08/10 11:19:56;;;;;;;6.88;4.40;;;38.30;34.00;;;;;;5036808;28;20093;-58
2022/08/10 11:22:46;;;;;;;4.70;3.58;;;38.50;33.10;;;;;;5036022;28;20033;-58
2022/08/10 11:25:21;;;;;;;6.57;4.10;;;38.60;30.60;;;;;;5034817;28;20076;-56
2022/08/10 11:28:08;;;;;;;6.65;3.90;;;38.80;30.60;;;;;;5038717;28;20034;-58
2022/08/10 11:31:03;;;;;;;7.65;4.53;;;38.90;31.00;;;;;;5040452;28;20380;-57
2022/08/10 11:33:47;;;;;;;5.93;3.90;;;39.20;30.00;;;;;;5040319;28;20040;-57
2022/08/10 11:36:32;;;;;;;4.60;3.42;;;39.50;30.40;;;;;;5039520;28;20022;-57
2022/08/10 11:39:20;;;;;;;6.82;3.53;;;39.60;28.70;;;;;;5040175;28;20030;-59
2022/08/10 11:42:02;;;;;;;6.15;3.65;;;39.70;28.90;;;;;;5040284;28;20408;-58
2022/08/10 11:44:30;;;;;;;4.88;3.47;;;40.30;30.50;;;;;;5040072;28;20025;-59
2022/08/10 11:47:08;;;;;;;5.43;3.90;;;40.80;28.70;;;;;;5040321;28;20029;-56
2022/08/10 11:49:58;;;;;;;5.90;3.70;;;41.10;27.10;;;;;;5040179;28;20040;-57
2022/08/10 11:52:52;;;;;;;5.85;3.30;;;41.10;31.00;;;;;;5040375;28;20045;-57
2022/08/10 11:55:26;;;;;;;7.22;3.42;;;41.10;27.70;;;;;;5039124;28;20028;-57
2022/08/10 11:57:57;;;;;;;5.18;3.33;;;41.10;29.10;;;;;;5040387;28;20025;-58
2022/08/10 12:00:24;;;;;;;7.55;3.10;;;41.20;27.50;;;;;;5039702;28;20416;-58
2022/08/10 12:03:08;;;;;;;4.18;3.60;;;41.40;27.90;;;;;;5039683;28;20060;-57
2022/08/10 12:05:38;;;;;;;11.27;3.90;;;41.60;27.30;;;;;;5039846;28;20033;-57
2022/08/10 12:08:05;;;;;;;6.45;3.45;;;41.80;27.60;;;;;;5039788;28;20378;-57
2022/08/10 12:10:33;;;;;;;8.57;3.42;;;42.10;28.10;;;;;;5039214;28;20025;-57
2022/08/10 12:13:15;;;;;;;5.20;3.65;;;42.40;26.90;;;;;;5039740;28;20017;-58
2022/08/10 12:16:11;;;;;;;7.28;3.60;;;42.50;26.20;;;;;;5040138;28;20026;-58
2022/08/10 12:18:50;;;;;;;5.90;3.50;;;42.40;25.70;;;;;;5039985;28;20033;-57
2022/08/10 12:21:30;;;;;;;7.57;3.75;;;42.40;27.10;;;;;;5039957;28;20163;-56
2022/08/10 12:24:03;;;;;;;7.65;3.35;;;42.60;24.80;;;;;;5021590;28;20080;-57
2022/08/10 12:27:00;;;;;;;7.65;3.70;;;42.70;26.00;;;;;;5038609;28;20611;-59
2022/08/10 12:29:35;;;;;;;6.57;3.10;;;42.60;26.30;;;;;;5036097;28;20041;-58
2022/08/10 12:32:27;;;;;;;6.57;3.40;;;42.70;25.60;;;;;;5038984;28;20025;-57
2022/08/10 12:35:11;;;;;;;10.85;3.97;;;42.90;23.20;;;;;;5033669;28;20036;-57
2022/08/10 12:38:15;;;;;;;7.00;3.63;;;42.60;22.80;;;;;;5039277;28;20082;-57
2022/08/10 12:40:54;;;;;;;6.85;3.40;;;42.60;25.30;;;;;;5031888;28;20044;-58
2022/08/10 12:43:42;;;;;;;7.30;3.42;;;42.60;25.90;;;;;;5039517;28;20017;-59
2022/08/10 12:46:27;;;;;;;6.47;3.13;;;42.70;24.60;;;;;;5021044;28;20025;-57
2022/08/10 12:49:16;;;;;;;7.10;3.50;;;42.90;25.90;;;;;;5039019;28;20108;-58
2022/08/10 12:51:49;;;;;;;6.30;3.33;;;43.00;24.10;;;;;;5039363;28;20078;-57
2022/08/10 12:54:20;;;;;;;5.50;3.22;;;43.10;24.70;;;;;;5038942;28;20033;-58
2022/08/10 12:57:14;;;;;;;7.30;3.50;;;43.40;24.80;;;;;;5039120;28;20385;-57
2022/08/10 12:59:43;;;;;;;9.20;3.60;;;43.80;25.90;;;;;;5038877;28;20103;-58
2022/08/10 13:02:17;;;;;;;6.65;3.35;;;44.10;25.30;;;;;;5038692;28;20478;-57
2022/08/10 13:04:44;;;;;;;8.00;3.50;;;44.20;25.00;;;;;;5038828;28;20547;-58
2022/08/10 13:07:11;;;;;;;7.10;3.17;;;44.40;23.80;;;;;;5038578;28;20508;-58
2022/08/10 13:09:37;;;;;;;8.68;4.07;;;44.60;24.80;;;;;;5038550;28;20053;-58
2022/08/10 13:12:14;;;;;;;7.15;3.88;;;44.70;23.70;;;;;;5038373;28;20028;-60
2022/08/10 13:15:03;;;;;;;6.45;3.80;;;44.50;24.10;;;;;;5038686;28;20477;-57
2022/08/10 13:17:32;;;;;;;7.53;3.70;;;44.30;23.60;;;;;;5019870;28;20113;-57
2022/08/10 13:20:02;;;;;;;5.70;3.38;;;44.20;23.60;;;;;;5038219;28;20039;-57